Terminal Aerodrome Forecast
Issued by NWS

Home | Current Version | Previous Version | Text Only | Print | Product List | Glossary Off
Versions: 1 2 3 4 5 6 7 8 9 10 11 12 13 14 15 16 17

160
FTUS43 KFGF 290042 AAA
TAFBJI
TAF AMD
KBJI 290042Z 2901/2924 33012G18KT P6SM VCSH BKN040
     FM290300 29009KT P6SM VCSH OVC015
     FM291500 30015G23KT P6SM VCSH OVC008
     FM291900 31014KT P6SM OVC020=

USA.gov is the U.S. government's official web portal to all federal, state and local government web resources and services.